sensor_id;sensor_type;location;lat;lon;timestamp;P1;durP1;ratioP1;P2;durP2;ratioP2
53927;SDS011;39837;47.630;18.822;2024-01-30T00:00:44;54.67;;;29.45;;
53927;SDS011;39837;47.630;18.822;2024-01-30T00:03:29;55.53;;;27.95;;
53927;SDS011;39837;47.630;18.822;2024-01-30T00:06:13;56.55;;;28.38;;
53927;SDS011;39837;47.630;18.822;2024-01-30T00:08:58;46.17;;;26.90;;
53927;SDS011;39837;47.630;18.822;2024-01-30T00:11:42;52.63;;;27.83;;
53927;SDS011;39837;47.630;18.822;2024-01-30T00:14:26;59.88;;;29.45;;
53927;SDS011;39837;47.630;18.822;2024-01-30T00:17:10;49.50;;;27.75;;
53927;SDS011;39837;47.630;18.822;2024-01-30T00:19:54;47.35;;;27.45;;
53927;SDS011;39837;47.630;18.822;2024-01-30T00:22:38;61.05;;;29.98;;
53927;SDS011;39837;47.630;18.822;2024-01-30T00:25:22;48.83;;;29.40;;
53927;SDS011;39837;47.630;18.822;2024-01-30T00:28:06;50.83;;;29.05;;
53927;SDS011;39837;47.630;18.822;2024-01-30T00:30:50;46.92;;;27.27;;
53927;SDS011;39837;47.630;18.822;2024-01-30T00:33:34;59.33;;;31.77;;
53927;SDS011;39837;47.630;18.822;2024-01-30T00:36:18;51.75;;;28.50;;
53927;SDS011;39837;47.630;18.822;2024-01-30T00:39:02;59.65;;;31.17;;
53927;SDS011;39837;47.630;18.822;2024-01-30T00:41:50;54.95;;;30.88;;
53927;SDS011;39837;47.630;18.822;2024-01-30T00:44:37;59.58;;;31.65;;
53927;SDS011;39837;47.630;18.822;2024-01-30T00:47:21;56.45;;;32.53;;
53927;SDS011;39837;47.630;18.822;2024-01-30T00:50:05;56.30;;;29.65;;
53927;SDS011;39837;47.630;18.822;2024-01-30T00:52:50;67.95;;;32.97;;
53927;SDS011;39837;47.630;18.822;2024-01-30T00:55:35;59.38;;;31.30;;
53927;SDS011;39837;47.630;18.822;2024-01-30T00:58:19;53.92;;;32.33;;
53927;SDS011;39837;47.630;18.822;2024-01-30T01:01:03;64.40;;;34.92;;
53927;SDS011;39837;47.630;18.822;2024-01-30T01:03:47;54.55;;;32.17;;
53927;SDS011;39837;47.630;18.822;2024-01-30T01:06:31;61.58;;;34.53;;
53927;SDS011;39837;47.630;18.822;2024-01-30T01:09:15;70.93;;;34.90;;
53927;SDS011;39837;47.630;18.822;2024-01-30T01:12:00;68.40;;;34.80;;
53927;SDS011;39837;47.630;18.822;2024-01-30T01:14:44;60.50;;;32.42;;
53927;SDS011;39837;47.630;18.822;2024-01-30T01:17:28;53.45;;;32.15;;
53927;SDS011;39837;47.630;18.822;2024-01-30T01:20:12;54.30;;;30.65;;
53927;SDS011;39837;47.630;18.822;2024-01-30T01:22:57;55.08;;;29.30;;
53927;SDS011;39837;47.630;18.822;2024-01-30T01:25:41;51.85;;;29.70;;
53927;SDS011;39837;47.630;18.822;2024-01-30T01:28:25;52.17;;;27.95;;
53927;SDS011;39837;47.630;18.822;2024-01-30T01:31:09;55.15;;;30.20;;
53927;SDS011;39837;47.630;18.822;2024-01-30T01:33:53;49.92;;;28.95;;
53927;SDS011;39837;47.630;18.822;2024-01-30T01:36:37;50.72;;;29.48;;
53927;SDS011;39837;47.630;18.822;2024-01-30T01:39:22;47.67;;;27.58;;
53927;SDS011;39837;47.630;18.822;2024-01-30T01:42:09;57.75;;;29.13;;
53927;SDS011;39837;47.630;18.822;2024-01-30T01:44:53;57.72;;;29.48;;
53927;SDS011;39837;47.630;18.822;2024-01-30T01:47:37;39.95;;;26.42;;
53927;SDS011;39837;47.630;18.822;2024-01-30T01:50:22;47.55;;;27.88;;
53927;SDS011;39837;47.630;18.822;2024-01-30T01:53:07;45.97;;;27.38;;
53927;SDS011;39837;47.630;18.822;2024-01-30T01:55:51;47.17;;;28.63;;
53927;SDS011;39837;47.630;18.822;2024-01-30T01:58:37;48.85;;;27.55;;
53927;SDS011;39837;47.630;18.822;2024-01-30T02:01:21;53.40;;;29.63;;
53927;SDS011;39837;47.630;18.822;2024-01-30T02:04:07;55.25;;;30.88;;
53927;SDS011;39837;47.630;18.822;2024-01-30T02:06:51;55.63;;;30.90;;
53927;SDS011;39837;47.630;18.822;2024-01-30T02:09:36;53.92;;;30.75;;
53927;SDS011;39837;47.630;18.822;2024-01-30T02:12:20;64.07;;;30.52;;
53927;SDS011;39837;47.630;18.822;2024-01-30T02:15:04;53.80;;;31.08;;
53927;SDS011;39837;47.630;18.822;2024-01-30T02:17:50;51.13;;;27.93;;
53927;SDS011;39837;47.630;18.822;2024-01-30T02:20:34;51.65;;;27.73;;
53927;SDS011;39837;47.630;18.822;2024-01-30T02:23:19;49.88;;;29.45;;
53927;SDS011;39837;47.630;18.822;2024-01-30T02:26:04;45.15;;;26.95;;
53927;SDS011;39837;47.630;18.822;2024-01-30T02:28:48;51.05;;;28.75;;
53927;SDS011;39837;47.630;18.822;2024-01-30T02:31:32;53.88;;;28.00;;
53927;SDS011;39837;47.630;18.822;2024-01-30T02:34:16;53.92;;;30.35;;
53927;SDS011;39837;47.630;18.822;2024-01-30T02:37:00;49.63;;;28.08;;
53927;SDS011;39837;47.630;18.822;2024-01-30T02:39:45;51.92;;;29.60;;
53927;SDS011;39837;47.630;18.822;2024-01-30T02:42:29;58.78;;;29.38;;
53927;SDS011;39837;47.630;18.822;2024-01-30T02:45:12;50.58;;;28.65;;
53927;SDS011;39837;47.630;18.822;2024-01-30T02:47:57;49.08;;;28.75;;
53927;SDS011;39837;47.630;18.822;2024-01-30T02:50:41;52.45;;;28.30;;
53927;SDS011;39837;47.630;18.822;2024-01-30T02:53:24;45.50;;;28.70;;
53927;SDS011;39837;47.630;18.822;2024-01-30T02:56:08;55.45;;;27.63;;
53927;SDS011;39837;47.630;18.822;2024-01-30T02:58:53;58.70;;;30.70;;
53927;SDS011;39837;47.630;18.822;2024-01-30T03:01:44;55.22;;;31.23;;
53927;SDS011;39837;47.630;18.822;2024-01-30T03:04:28;58.90;;;31.80;;
53927;SDS011;39837;47.630;18.822;2024-01-30T03:07:13;49.47;;;32.55;;
53927;SDS011;39837;47.630;18.822;2024-01-30T03:09:58;61.10;;;35.00;;
53927;SDS011;39837;47.630;18.822;2024-01-30T03:12:42;59.35;;;31.13;;
53927;SDS011;39837;47.630;18.822;2024-01-30T03:15:26;47.47;;;29.98;;
53927;SDS011;39837;47.630;18.822;2024-01-30T03:18:10;61.97;;;32.08;;
53927;SDS011;39837;47.630;18.822;2024-01-30T03:20:54;67.05;;;34.88;;
53927;SDS011;39837;47.630;18.822;2024-01-30T03:23:39;66.28;;;33.58;;
53927;SDS011;39837;47.630;18.822;2024-01-30T03:26:23;62.38;;;33.28;;
53927;SDS011;39837;47.630;18.822;2024-01-30T03:29:07;57.42;;;32.75;;
53927;SDS011;39837;47.630;18.822;2024-01-30T03:31:51;58.85;;;33.88;;
53927;SDS011;39837;47.630;18.822;2024-01-30T03:34:35;63.53;;;33.00;;
53927;SDS011;39837;47.630;18.822;2024-01-30T03:37:19;53.40;;;30.05;;
53927;SDS011;39837;47.630;18.822;2024-01-30T03:40:04;62.13;;;33.40;;
53927;SDS011;39837;47.630;18.822;2024-01-30T03:42:50;56.75;;;31.85;;
53927;SDS011;39837;47.630;18.822;2024-01-30T03:45:34;56.55;;;32.70;;
53927;SDS011;39837;47.630;18.822;2024-01-30T03:48:18;59.88;;;33.95;;
53927;SDS011;39837;47.630;18.822;2024-01-30T03:51:03;64.82;;;35.15;;
53927;SDS011;39837;47.630;18.822;2024-01-30T03:53:48;57.55;;;32.50;;
53927;SDS011;39837;47.630;18.822;2024-01-30T03:56:32;65.32;;;35.17;;
53927;SDS011;39837;47.630;18.822;2024-01-30T03:59:15;62.70;;;32.85;;
53927;SDS011;39837;47.630;18.822;2024-01-30T04:02:01;56.53;;;33.10;;
53927;SDS011;39837;47.630;18.822;2024-01-30T04:04:45;62.97;;;33.75;;
53927;SDS011;39837;47.630;18.822;2024-01-30T04:07:29;71.18;;;33.33;;
53927;SDS011;39837;47.630;18.822;2024-01-30T04:10:12;64.82;;;36.03;;
53927;SDS011;39837;47.630;18.822;2024-01-30T04:12:57;65.45;;;36.03;;
53927;SDS011;39837;47.630;18.822;2024-01-30T04:15:40;76.72;;;38.33;;
53927;SDS011;39837;47.630;18.822;2024-01-30T04:18:25;59.38;;;36.53;;
53927;SDS011;39837;47.630;18.822;2024-01-30T04:21:09;73.60;;;37.80;;
53927;SDS011;39837;47.630;18.822;2024-01-30T04:23:53;70.40;;;36.08;;
53927;SDS011;39837;47.630;18.822;2024-01-30T04:26:37;66.43;;;36.70;;
53927;SDS011;39837;47.630;18.822;2024-01-30T04:29:21;75.53;;;38.28;;
53927;SDS011;39837;47.630;18.822;2024-01-30T04:32:06;63.92;;;36.05;;
53927;SDS011;39837;47.630;18.822;2024-01-30T04:34:50;62.38;;;36.60;;
53927;SDS011;39837;47.630;18.822;2024-01-30T04:37:34;66.90;;;36.08;;
53927;SDS011;39837;47.630;18.822;2024-01-30T04:40:19;61.50;;;36.60;;
53927;SDS011;39837;47.630;18.822;2024-01-30T04:43:06;67.07;;;38.47;;
53927;SDS011;39837;47.630;18.822;2024-01-30T04:45:50;71.10;;;38.92;;
53927;SDS011;39837;47.630;18.822;2024-01-30T04:48:34;72.45;;;36.97;;
53927;SDS011;39837;47.630;18.822;2024-01-30T04:51:18;67.65;;;37.47;;
53927;SDS011;39837;47.630;18.822;2024-01-30T04:54:02;64.40;;;37.05;;
53927;SDS011;39837;47.630;18.822;2024-01-30T04:56:46;63.38;;;35.67;;
53927;SDS011;39837;47.630;18.822;2024-01-30T04:59:30;67.70;;;37.42;;
53927;SDS011;39837;47.630;18.822;2024-01-30T05:02:14;69.05;;;36.95;;
53927;SDS011;39837;47.630;18.822;2024-01-30T05:04:59;62.17;;;36.50;;
53927;SDS011;39837;47.630;18.822;2024-01-30T05:07:43;67.68;;;37.03;;
53927;SDS011;39837;47.630;18.822;2024-01-30T05:10:27;69.10;;;37.28;;
53927;SDS011;39837;47.630;18.822;2024-01-30T05:13:12;70.68;;;34.65;;
53927;SDS011;39837;47.630;18.822;2024-01-30T05:15:57;61.17;;;34.45;;
53927;SDS011;39837;47.630;18.822;2024-01-30T05:18:41;60.10;;;33.55;;
53927;SDS011;39837;47.630;18.822;2024-01-30T05:21:25;57.63;;;33.53;;
53927;SDS011;39837;47.630;18.822;2024-01-30T05:24:10;68.40;;;32.97;;
53927;SDS011;39837;47.630;18.822;2024-01-30T05:26:54;62.30;;;32.95;;
53927;SDS011;39837;47.630;18.822;2024-01-30T05:29:38;61.45;;;34.38;;
53927;SDS011;39837;47.630;18.822;2024-01-30T05:32:22;56.67;;;35.10;;
53927;SDS011;39837;47.630;18.822;2024-01-30T05:35:06;62.17;;;33.95;;
53927;SDS011;39837;47.630;18.822;2024-01-30T05:37:51;60.03;;;33.55;;
53927;SDS011;39837;47.630;18.822;2024-01-30T05:40:35;61.97;;;32.70;;
53927;SDS011;39837;47.630;18.822;2024-01-30T05:43:19;59.97;;;33.25;;
53927;SDS011;39837;47.630;18.822;2024-01-30T05:46:03;65.28;;;34.47;;
53927;SDS011;39837;47.630;18.822;2024-01-30T05:48:48;60.78;;;33.78;;
53927;SDS011;39837;47.630;18.822;2024-01-30T05:51:31;62.30;;;33.78;;
53927;SDS011;39837;47.630;18.822;2024-01-30T05:54:15;65.25;;;35.08;;
53927;SDS011;39837;47.630;18.822;2024-01-30T05:56:59;62.47;;;33.25;;
53927;SDS011;39837;47.630;18.822;2024-01-30T05:59:44;58.75;;;34.38;;
53927;SDS011;39837;47.630;18.822;2024-01-30T06:02:28;60.47;;;35.35;;
53927;SDS011;39837;47.630;18.822;2024-01-30T06:05:12;65.57;;;35.72;;
53927;SDS011;39837;47.630;18.822;2024-01-30T06:07:56;63.03;;;35.30;;
53927;SDS011;39837;47.630;18.822;2024-01-30T06:10:40;55.35;;;34.90;;
53927;SDS011;39837;47.630;18.822;2024-01-30T06:13:24;61.88;;;35.05;;
53927;SDS011;39837;47.630;18.822;2024-01-30T06:16:10;62.97;;;34.47;;
53927;SDS011;39837;47.630;18.822;2024-01-30T06:18:57;64.65;;;35.67;;
53927;SDS011;39837;47.630;18.822;2024-01-30T06:21:42;57.60;;;35.25;;
53927;SDS011;39837;47.630;18.822;2024-01-30T06:24:26;61.13;;;36.38;;
53927;SDS011;39837;47.630;18.822;2024-01-30T06:27:11;63.00;;;36.80;;
53927;SDS011;39837;47.630;18.822;2024-01-30T06:29:55;63.40;;;37.88;;
53927;SDS011;39837;47.630;18.822;2024-01-30T06:32:39;70.25;;;36.63;;
53927;SDS011;39837;47.630;18.822;2024-01-30T06:35:23;67.30;;;36.33;;
53927;SDS011;39837;47.630;18.822;2024-01-30T06:38:07;63.05;;;37.15;;
53927;SDS011;39837;47.630;18.822;2024-01-30T06:40:51;66.38;;;36.15;;
53927;SDS011;39837;47.630;18.822;2024-01-30T06:43:35;68.70;;;38.35;;
53927;SDS011;39837;47.630;18.822;2024-01-30T06:46:19;69.15;;;37.47;;
53927;SDS011;39837;47.630;18.822;2024-01-30T06:49:03;69.97;;;38.92;;
53927;SDS011;39837;47.630;18.822;2024-01-30T06:51:47;72.15;;;41.40;;
53927;SDS011;39837;47.630;18.822;2024-01-30T06:54:31;80.75;;;41.33;;
53927;SDS011;39837;47.630;18.822;2024-01-30T06:57:16;72.88;;;40.53;;
53927;SDS011;39837;47.630;18.822;2024-01-30T07:00:00;86.05;;;41.78;;
53927;SDS011;39837;47.630;18.822;2024-01-30T07:02:44;73.65;;;42.90;;
53927;SDS011;39837;47.630;18.822;2024-01-30T07:05:28;72.00;;;41.17;;
53927;SDS011;39837;47.630;18.822;2024-01-30T07:08:12;65.22;;;38.88;;
53927;SDS011;39837;47.630;18.822;2024-01-30T07:10:57;67.63;;;38.55;;
53927;SDS011;39837;47.630;18.822;2024-01-30T07:13:41;71.30;;;40.75;;
53927;SDS011;39837;47.630;18.822;2024-01-30T07:16:25;73.20;;;38.72;;
53927;SDS011;39837;47.630;18.822;2024-01-30T07:19:09;75.68;;;39.97;;
53927;SDS011;39837;47.630;18.822;2024-01-30T07:21:53;70.90;;;39.38;;
53927;SDS011;39837;47.630;18.822;2024-01-30T07:24:41;71.70;;;38.97;;
53927;SDS011;39837;47.630;18.822;2024-01-30T07:27:28;79.00;;;42.50;;
53927;SDS011;39837;47.630;18.822;2024-01-30T07:30:12;78.75;;;46.50;;
53927;SDS011;39837;47.630;18.822;2024-01-30T07:32:57;122.53;;;54.45;;
53927;SDS011;39837;47.630;18.822;2024-01-30T07:35:41;74.03;;;43.97;;
53927;SDS011;39837;47.630;18.822;2024-01-30T07:38:25;79.47;;;46.20;;
53927;SDS011;39837;47.630;18.822;2024-01-30T07:41:09;79.50;;;46.80;;
53927;SDS011;39837;47.630;18.822;2024-01-30T07:43:53;79.32;;;48.10;;
53927;SDS011;39837;47.630;18.822;2024-01-30T07:46:37;81.50;;;48.08;;
53927;SDS011;39837;47.630;18.822;2024-01-30T07:49:21;91.25;;;55.70;;
53927;SDS011;39837;47.630;18.822;2024-01-30T07:52:05;89.82;;;48.13;;
53927;SDS011;39837;47.630;18.822;2024-01-30T07:54:50;87.72;;;51.80;;
53927;SDS011;39837;47.630;18.822;2024-01-30T07:57:35;85.50;;;45.72;;
53927;SDS011;39837;47.630;18.822;2024-01-30T08:00:20;91.03;;;48.63;;
53927;SDS011;39837;47.630;18.822;2024-01-30T08:03:06;88.65;;;50.13;;
53927;SDS011;39837;47.630;18.822;2024-01-30T08:05:50;81.93;;;48.08;;
53927;SDS011;39837;47.630;18.822;2024-01-30T08:08:34;94.10;;;46.20;;
53927;SDS011;39837;47.630;18.822;2024-01-30T08:11:19;75.07;;;44.20;;
53927;SDS011;39837;47.630;18.822;2024-01-30T08:14:04;69.43;;;41.70;;
53927;SDS011;39837;47.630;18.822;2024-01-30T08:16:48;78.35;;;42.72;;
53927;SDS011;39837;47.630;18.822;2024-01-30T08:19:32;80.50;;;44.30;;
53927;SDS011;39837;47.630;18.822;2024-01-30T08:22:17;96.72;;;47.35;;
53927;SDS011;39837;47.630;18.822;2024-01-30T08:25:01;72.45;;;40.15;;
53927;SDS011;39837;47.630;18.822;2024-01-30T08:27:46;106.20;;;47.88;;
53927;SDS011;39837;47.630;18.822;2024-01-30T08:30:30;94.28;;;47.38;;
53927;SDS011;39837;47.630;18.822;2024-01-30T08:33:14;71.55;;;39.65;;
53927;SDS011;39837;47.630;18.822;2024-01-30T08:35:59;103.78;;;47.85;;
53927;SDS011;39837;47.630;18.822;2024-01-30T08:38:43;74.95;;;40.47;;
53927;SDS011;39837;47.630;18.822;2024-01-30T08:41:27;75.32;;;43.08;;
53927;SDS011;39837;47.630;18.822;2024-01-30T08:44:11;81.30;;;43.50;;
53927;SDS011;39837;47.630;18.822;2024-01-30T08:46:55;81.15;;;43.65;;
53927;SDS011;39837;47.630;18.822;2024-01-30T08:49:39;82.15;;;43.95;;
53927;SDS011;39837;47.630;18.822;2024-01-30T08:52:23;86.85;;;44.60;;
53927;SDS011;39837;47.630;18.822;2024-01-30T08:55:08;93.00;;;49.00;;
53927;SDS011;39837;47.630;18.822;2024-01-30T08:57:52;66.85;;;38.15;;
53927;SDS011;39837;47.630;18.822;2024-01-30T09:00:36;83.55;;;42.70;;
53927;SDS011;39837;47.630;18.822;2024-01-30T09:03:21;67.43;;;38.50;;
53927;SDS011;39837;47.630;18.822;2024-01-30T09:06:08;73.13;;;41.20;;
53927;SDS011;39837;47.630;18.822;2024-01-30T09:08:53;92.50;;;44.60;;
53927;SDS011;39837;47.630;18.822;2024-01-30T09:11:38;69.50;;;39.15;;
53927;SDS011;39837;47.630;18.822;2024-01-30T09:14:22;99.40;;;44.00;;
53927;SDS011;39837;47.630;18.822;2024-01-30T09:17:06;78.82;;;42.05;;
53927;SDS011;39837;47.630;18.822;2024-01-30T09:19:51;63.17;;;35.80;;
53927;SDS011;39837;47.630;18.822;2024-01-30T09:22:35;60.45;;;35.25;;
53927;SDS011;39837;47.630;18.822;2024-01-30T09:25:19;57.00;;;31.23;;
53927;SDS011;39837;47.630;18.822;2024-01-30T09:28:03;56.67;;;32.05;;
53927;SDS011;39837;47.630;18.822;2024-01-30T09:30:48;48.38;;;32.20;;
53927;SDS011;39837;47.630;18.822;2024-01-30T09:33:32;57.45;;;33.95;;
53927;SDS011;39837;47.630;18.822;2024-01-30T09:36:16;58.35;;;32.45;;
53927;SDS011;39837;47.630;18.822;2024-01-30T09:39:02;61.33;;;33.95;;
53927;SDS011;39837;47.630;18.822;2024-01-30T09:45:00;63.88;;;32.72;;
53927;SDS011;39837;47.630;18.822;2024-01-30T09:47:45;49.72;;;31.15;;
53927;SDS011;39837;47.630;18.822;2024-01-30T09:50:30;53.78;;;30.90;;
53927;SDS011;39837;47.630;18.822;2024-01-30T09:53:15;44.75;;;27.92;;
53927;SDS011;39837;47.630;18.822;2024-01-30T09:55:59;47.95;;;28.60;;
53927;SDS011;39837;47.630;18.822;2024-01-30T09:58:45;40.97;;;26.50;;
53927;SDS011;39837;47.630;18.822;2024-01-30T10:01:29;45.72;;;27.65;;
53927;SDS011;39837;47.630;18.822;2024-01-30T10:04:15;44.85;;;26.30;;
53927;SDS011;39837;47.630;18.822;2024-01-30T10:07:01;36.60;;;24.02;;
53927;SDS011;39837;47.630;18.822;2024-01-30T10:09:45;45.90;;;28.05;;
53927;SDS011;39837;47.630;18.822;2024-01-30T10:12:30;43.78;;;28.45;;
53927;SDS011;39837;47.630;18.822;2024-01-30T10:15:14;43.55;;;23.17;;
53927;SDS011;39837;47.630;18.822;2024-01-30T10:17:59;38.30;;;23.10;;
53927;SDS011;39837;47.630;18.822;2024-01-30T10:20:43;40.35;;;21.08;;
53927;SDS011;39837;47.630;18.822;2024-01-30T10:23:27;32.15;;;21.83;;
53927;SDS011;39837;47.630;18.822;2024-01-30T10:26:11;41.28;;;24.98;;
53927;SDS011;39837;47.630;18.822;2024-01-30T10:28:55;35.35;;;21.52;;
53927;SDS011;39837;47.630;18.822;2024-01-30T10:31:39;23.65;;;16.92;;
53927;SDS011;39837;47.630;18.822;2024-01-30T10:34:23;22.02;;;14.13;;
53927;SDS011;39837;47.630;18.822;2024-01-30T10:37:08;22.80;;;15.48;;
53927;SDS011;39837;47.630;18.822;2024-01-30T10:40:00;20.67;;;14.63;;
53927;SDS011;39837;47.630;18.822;2024-01-30T10:42:49;25.33;;;14.23;;
53927;SDS011;39837;47.630;18.822;2024-01-30T10:45:37;22.70;;;15.13;;
53927;SDS011;39837;47.630;18.822;2024-01-30T10:48:22;25.50;;;15.25;;
53927;SDS011;39837;47.630;18.822;2024-01-30T10:51:10;27.27;;;16.45;;
53927;SDS011;39837;47.630;18.822;2024-01-30T10:56:40;25.80;;;16.13;;
53927;SDS011;39837;47.630;18.822;2024-01-30T10:59:24;29.00;;;16.95;;
53927;SDS011;39837;47.630;18.822;2024-01-30T11:02:09;22.95;;;15.85;;
53927;SDS011;39837;47.630;18.822;2024-01-30T11:04:57;22.67;;;14.60;;
53927;SDS011;39837;47.630;18.822;2024-01-30T11:07:42;24.02;;;15.13;;
53927;SDS011;39837;47.630;18.822;2024-01-30T11:10:27;24.67;;;15.73;;
53927;SDS011;39837;47.630;18.822;2024-01-30T11:13:13;26.15;;;16.83;;
53927;SDS011;39837;47.630;18.822;2024-01-30T11:16:01;17.45;;;10.25;;
53927;SDS011;39837;47.630;18.822;2024-01-30T11:18:49;13.32;;;9.27;;
53927;SDS011;39837;47.630;18.822;2024-01-30T11:21:41;17.70;;;12.80;;
53927;SDS011;39837;47.630;18.822;2024-01-30T11:24:25;21.05;;;13.00;;
53927;SDS011;39837;47.630;18.822;2024-01-30T11:27:09;24.42;;;11.30;;
53927;SDS011;39837;47.630;18.822;2024-01-30T11:29:54;18.02;;;11.93;;
53927;SDS011;39837;47.630;18.822;2024-01-30T11:32:45;16.92;;;10.65;;
53927;SDS011;39837;47.630;18.822;2024-01-30T11:35:29;12.55;;;9.65;;
53927;SDS011;39837;47.630;18.822;2024-01-30T11:38:14;17.07;;;11.57;;
53927;SDS011;39837;47.630;18.822;2024-01-30T11:40:58;12.50;;;9.80;;
53927;SDS011;39837;47.630;18.822;2024-01-30T11:43:51;20.13;;;11.23;;
53927;SDS011;39837;47.630;18.822;2024-01-30T11:46:37;12.02;;;9.13;;
53927;SDS011;39837;47.630;18.822;2024-01-30T11:49:22;14.25;;;9.68;;
53927;SDS011;39837;47.630;18.822;2024-01-30T11:52:07;18.77;;;11.25;;
53927;SDS011;39837;47.630;18.822;2024-01-30T11:54:51;24.25;;;15.07;;
53927;SDS011;39837;47.630;18.822;2024-01-30T11:57:35;16.73;;;11.35;;
53927;SDS011;39837;47.630;18.822;2024-01-30T12:00:20;20.87;;;14.03;;
53927;SDS011;39837;47.630;18.822;2024-01-30T12:03:05;22.20;;;14.85;;
53927;SDS011;39837;47.630;18.822;2024-01-30T12:05:59;27.42;;;15.73;;
53927;SDS011;39837;47.630;18.822;2024-01-30T12:08:55;20.75;;;13.38;;
53927;SDS011;39837;47.630;18.822;2024-01-30T12:11:48;19.83;;;13.23;;
53927;SDS011;39837;47.630;18.822;2024-01-30T12:14:33;18.95;;;12.70;;
53927;SDS011;39837;47.630;18.822;2024-01-30T12:17:50;18.92;;;12.45;;
53927;SDS011;39837;47.630;18.822;2024-01-30T12:20:27;21.27;;;12.35;;
53927;SDS011;39837;47.630;18.822;2024-01-30T12:23:11;15.50;;;11.20;;
53927;SDS011;39837;47.630;18.822;2024-01-30T12:25:56;15.02;;;9.93;;
53927;SDS011;39837;47.630;18.822;2024-01-30T12:28:49;18.05;;;11.75;;
53927;SDS011;39837;47.630;18.822;2024-01-30T12:31:34;21.23;;;11.40;;
53927;SDS011;39837;47.630;18.822;2024-01-30T12:34:18;14.05;;;10.60;;
53927;SDS011;39837;47.630;18.822;2024-01-30T12:37:04;16.40;;;10.40;;
53927;SDS011;39837;47.630;18.822;2024-01-30T12:39:53;14.05;;;10.10;;
53927;SDS011;39837;47.630;18.822;2024-01-30T12:42:38;15.63;;;10.27;;
53927;SDS011;39837;47.630;18.822;2024-01-30T12:45:22;15.52;;;10.00;;
53927;SDS011;39837;47.630;18.822;2024-01-30T12:48:06;21.38;;;10.65;;
53927;SDS011;39837;47.630;18.822;2024-01-30T12:50:50;17.67;;;10.93;;
53927;SDS011;39837;47.630;18.822;2024-01-30T12:53:36;15.35;;;11.07;;
53927;SDS011;39837;47.630;18.822;2024-01-30T12:56:20;23.05;;;11.57;;
53927;SDS011;39837;47.630;18.822;2024-01-30T12:59:05;16.10;;;11.75;;
53927;SDS011;39837;47.630;18.822;2024-01-30T13:01:49;14.10;;;10.98;;
53927;SDS011;39837;47.630;18.822;2024-01-30T13:04:33;16.95;;;9.88;;
53927;SDS011;39837;47.630;18.822;2024-01-30T13:07:17;13.00;;;8.00;;
53927;SDS011;39837;47.630;18.822;2024-01-30T13:10:02;12.88;;;9.70;;
53927;SDS011;39837;47.630;18.822;2024-01-30T13:12:47;11.68;;;8.48;;
53927;SDS011;39837;47.630;18.822;2024-01-30T13:15:31;10.43;;;7.85;;
53927;SDS011;39837;47.630;18.822;2024-01-30T13:18:15;9.48;;;7.20;;
53927;SDS011;39837;47.630;18.822;2024-01-30T13:20:59;10.20;;;7.90;;
53927;SDS011;39837;47.630;18.822;2024-01-30T13:23:43;23.75;;;8.65;;
53927;SDS011;39837;47.630;18.822;2024-01-30T13:26:27;11.35;;;9.70;;
53927;SDS011;39837;47.630;18.822;2024-01-30T13:29:14;13.30;;;9.00;;
53927;SDS011;39837;47.630;18.822;2024-01-30T13:34:42;9.52;;;7.18;;
53927;SDS011;39837;47.630;18.822;2024-01-30T13:37:27;6.85;;;6.15;;
53927;SDS011;39837;47.630;18.822;2024-01-30T13:40:11;11.15;;;6.53;;
53927;SDS011;39837;47.630;18.822;2024-01-30T13:42:56;17.02;;;6.50;;
53927;SDS011;39837;47.630;18.822;2024-01-30T13:45:40;7.20;;;5.28;;
53927;SDS011;39837;47.630;18.822;2024-01-30T13:48:26;10.88;;;5.63;;
53927;SDS011;39837;47.630;18.822;2024-01-30T13:51:10;8.40;;;6.22;;
53927;SDS011;39837;47.630;18.822;2024-01-30T13:53:57;5.88;;;5.28;;
53927;SDS011;39837;47.630;18.822;2024-01-30T13:56:41;6.72;;;6.03;;
53927;SDS011;39837;47.630;18.822;2024-01-30T13:59:25;7.72;;;6.80;;
53927;SDS011;39837;47.630;18.822;2024-01-30T14:02:10;6.35;;;5.53;;
53927;SDS011;39837;47.630;18.822;2024-01-30T14:04:55;9.07;;;6.30;;
53927;SDS011;39837;47.630;18.822;2024-01-30T14:07:48;7.75;;;6.95;;
53927;SDS011;39837;47.630;18.822;2024-01-30T14:10:34;7.82;;;5.53;;
53927;SDS011;39837;47.630;18.822;2024-01-30T14:13:18;8.88;;;6.55;;
53927;SDS011;39837;47.630;18.822;2024-01-30T14:16:02;9.75;;;7.03;;
53927;SDS011;39837;47.630;18.822;2024-01-30T14:18:46;7.85;;;7.00;;
53927;SDS011;39837;47.630;18.822;2024-01-30T14:21:30;8.73;;;6.72;;
53927;SDS011;39837;47.630;18.822;2024-01-30T14:24:13;9.85;;;7.90;;
53927;SDS011;39837;47.630;18.822;2024-01-30T14:26:57;12.27;;;7.05;;
53927;SDS011;39837;47.630;18.822;2024-01-30T14:29:43;9.82;;;7.35;;
53927;SDS011;39837;47.630;18.822;2024-01-30T14:32:28;8.73;;;6.60;;
53927;SDS011;39837;47.630;18.822;2024-01-30T14:35:12;8.38;;;7.03;;
53927;SDS011;39837;47.630;18.822;2024-01-30T14:37:57;11.15;;;8.07;;
53927;SDS011;39837;47.630;18.822;2024-01-30T14:40:41;10.00;;;7.28;;
53927;SDS011;39837;47.630;18.822;2024-01-30T14:43:26;9.77;;;7.22;;
53927;SDS011;39837;47.630;18.822;2024-01-30T14:46:10;13.17;;;7.23;;
53927;SDS011;39837;47.630;18.822;2024-01-30T14:48:55;11.13;;;8.30;;
53927;SDS011;39837;47.630;18.822;2024-01-30T14:51:41;8.55;;;6.55;;
53927;SDS011;39837;47.630;18.822;2024-01-30T14:54:25;12.77;;;8.25;;
53927;SDS011;39837;47.630;18.822;2024-01-30T14:57:10;9.90;;;7.55;;
53927;SDS011;39837;47.630;18.822;2024-01-30T14:59:54;11.25;;;8.10;;
53927;SDS011;39837;47.630;18.822;2024-01-30T15:02:38;8.95;;;7.80;;
53927;SDS011;39837;47.630;18.822;2024-01-30T15:05:23;10.10;;;7.70;;
53927;SDS011;39837;47.630;18.822;2024-01-30T15:08:07;10.18;;;7.82;;
53927;SDS011;39837;47.630;18.822;2024-01-30T15:10:51;13.43;;;9.35;;
53927;SDS011;39837;47.630;18.822;2024-01-30T15:13:36;11.48;;;8.80;;
53927;SDS011;39837;47.630;18.822;2024-01-30T15:16:20;13.15;;;8.98;;
53927;SDS011;39837;47.630;18.822;2024-01-30T15:19:04;10.60;;;7.97;;
53927;SDS011;39837;47.630;18.822;2024-01-30T15:21:48;10.50;;;8.27;;
53927;SDS011;39837;47.630;18.822;2024-01-30T15:24:32;9.07;;;8.05;;
53927;SDS011;39837;47.630;18.822;2024-01-30T15:27:16;12.52;;;8.23;;
53927;SDS011;39837;47.630;18.822;2024-01-30T15:30:03;12.30;;;9.02;;
53927;SDS011;39837;47.630;18.822;2024-01-30T15:32:48;12.82;;;9.32;;
53927;SDS011;39837;47.630;18.822;2024-01-30T15:35:32;12.80;;;9.40;;
53927;SDS011;39837;47.630;18.822;2024-01-30T15:38:16;14.68;;;9.82;;
53927;SDS011;39837;47.630;18.822;2024-01-30T15:41:02;17.65;;;9.32;;
53927;SDS011;39837;47.630;18.822;2024-01-30T15:43:46;14.50;;;10.32;;
53927;SDS011;39837;47.630;18.822;2024-01-30T15:46:30;20.88;;;10.45;;
53927;SDS011;39837;47.630;18.822;2024-01-30T15:49:14;14.02;;;10.63;;
53927;SDS011;39837;47.630;18.822;2024-01-30T15:51:58;13.52;;;10.50;;
53927;SDS011;39837;47.630;18.822;2024-01-30T15:54:46;14.27;;;10.13;;
53927;SDS011;39837;47.630;18.822;2024-01-30T15:57:31;16.77;;;10.75;;
53927;SDS011;39837;47.630;18.822;2024-01-30T16:00:15;13.75;;;10.15;;